Flight Track Log - Related Links

Times and Time Zones

All times are in EDT time to prevent confusion due to time zone crossing. See the OPT332 flight status page for this flight to view local times or setup timezone preferences in your user account.

Time Position Orientation Groundspeed Altitude Reporting Facility
EDT Latitude Longitude Course Direction KTS MPH feet Rate Location/Type
Tue 12:10:56 PM 39.9583 -105.1389 321° Northwest 194 223 8,100  Level Salt Lake Center
Tue 12:11:45 PM 40.0000 -105.1833 321° Northwest 257 296 11,500 3,633 Climbing Denver TRACON
Tue 12:12:45 PM 39.9500 -105.2667 232° Southwest 248 285 14,700 2,809 Climbing Denver TRACON
Tue 12:14:06 PM 39.8975 -105.3478 230° Southwest 246 283 18,100 2,350 Climbing Denver Center
Tue 12:15:08 PM 39.8492 -105.4275 232° Southwest 260 299 20,300 2,032 Climbing Denver Center
Tue 12:16:10 PM 39.7986 -105.5075 231° Southwest 284 327 22,300 1,935 Climbing Denver Center
Tue 12:17:12 PM 39.7433 -105.5947 231° Southwest 289 333 24,300 1,548 Climbing Denver Center
Tue 12:18:14 PM 39.6936 -105.6944 237° Southwest 311 358 25,500 1,355 Climbing Denver Center
Tue 12:19:16 PM 39.6758 -105.8114 259° West 328 377 27,100 1,500 Climbing Denver Center
Tue 12:20:18 PM 39.6478 -105.9192 251° West 319 367 28,600 1,597 Climbing Denver Center
Tue 12:21:20 PM 39.6164 -106.0317 250° West 328 377 30,400 1,790 Climbing Denver Center
Tue 12:22:22 PM 39.5861 -106.1436 251° West 329 379 32,300 1,742 Climbing Denver Center
Tue 12:23:24 PM 39.5553 -106.2528 250° West 323 372 34,000 1,790 Climbing Denver Center
Tue 12:24:26 PM 39.5261 -106.3583 250° West 313 360 36,000 1,403 Climbing Denver Center
Tue 12:25:28 PM 39.4914 -106.4850 250° West 311 358 36,900 816 Climbing Denver Center
Tue 12:26:31 PM 39.4589 -106.5981 250° West 329 379 37,700 720 Climbing Denver Center
Tue 12:27:33 PM 39.4275 -106.7111 250° West 344 396 38,400 823 Climbing Denver Center
Tue 12:28:35 PM 39.3900 -106.8456 250° West 354 407 39,400 968 Climbing Denver Center
Tue 12:29:37 PM 39.3581 -106.9586 250° West 352 405 40,400 871 Climbing Denver Center
Tue 12:30:39 PM 39.3206 -107.0908 250° West 350 403 41,200 677 Climbing Denver Center
Tue 12:31:41 PM 39.2886 -107.2028 250° West 349 402 41,800 677 Climbing Denver Center
Tue 12:32:43 PM 39.2508 -107.3356 250° West 351 404 42,600 581 Climbing Denver Center
Tue 12:33:45 PM 39.2183 -107.4494 250° West 353 406 43,000 194 Climbing Denver Center
Tue 12:34:47 PM 39.1783 -107.5856 249° West 363 418 43,000  Level Denver Center
Tue 12:35:49 PM 39.1442 -107.7058 250° West 370 426 43,000  Level Denver Center
Tue 12:36:51 PM 39.1025 -107.8467 249° West 374 430 43,000  Level Denver Center
Tue 12:37:53 PM 39.0681 -107.9658 250° West 372 428 43,000  Level Denver Center
Tue 12:38:55 PM 39.0261 -108.1067 249° West 376 433 43,000  Level Denver Center
Tue 12:39:57 PM 38.9903 -108.2275 249° West 376 433 43,000  Level Denver Center
Tue 12:40:59 PM 38.9531 -108.3500 249° West 383 441 43,000  Level Denver Center
Tue 12:42:01 PM 38.9103 -108.4944 249° West 385 443 43,000  Level Denver Center
Tue 12:43:03 PM 38.8750 -108.6164 250° West 381 438 43,000  Level Denver Center
Tue 12:44:05 PM 38.8317 -108.7575 249° West 379 436 43,000  Level Denver Center
Tue 12:45:08 PM 38.7958 -108.8794 249° West 381 438 43,000  Level Denver Center
Tue 12:46:10 PM 38.7528 -109.0200 249° West 380 437 43,000  Level Denver Center
Tue 12:47:12 PM 38.7158 -109.1411 249° West 381 438 43,000  Level Denver Center
Tue 12:48:14 PM 38.6717 -109.2803 248° West 379 436 43,000  Level Denver Center
Tue 12:49:16 PM 38.6361 -109.4014 249° West 379 436 43,000  Level Denver Center
Tue 12:50:18 PM 38.5928 -109.5411 248° West 379 436 43,000  Level Denver Center
Tue 12:51:20 PM 38.5553 -109.6608 248° West 378 435 43,000  Level Denver Center
Tue 12:52:22 PM 38.5117 -109.8000 248° West 378 435 43,000  Level Denver Center
Tue 12:53:24 PM 38.4744 -109.9183 248° West 377 434 43,000  Level Denver Center
Tue 12:54:26 PM 38.4361 -110.0358 247° West 374 430 43,000  Level Denver Center
Tue 12:55:28 PM 38.3919 -110.1758 248° West 380 437 43,000  Level Denver Center
Tue 12:56:30 PM 38.3536 -110.2961 248° West 382 440 43,000 -484 Level Denver Center
Tue 12:57:32 PM 38.3092 -110.4367 248° West 384 442 42,000 -1,161 Descending Denver Center
Tue 12:58:34 PM 38.2689 -110.5597 247° West 392 451 40,600 -1,645 Descending Denver Center
Tue 12:59:36 PM 38.2222 -110.7039 248° West 395 455 38,600 -1,839 Descending Denver Center
Tue 01:00:38 PM 38.1814 -110.8297 248° West 401 461 36,800 -1,851 Descending Denver Center
Tue 01:01:10 PM 38.1550 -110.9139 248° West 402 463 35,700 -1,277 Descending Salt Lake Center
Tue 01:02:12 PM 38.1147 -111.0356 247° West 404 465 34,800 -823 Descending Salt Lake Center
Tue 01:03:14 PM 38.0381 -111.1375 226° Southwest 403 464 34,000 -629 Descending Salt Lake Center
Tue 01:04:16 PM 37.9411 -111.2600 225° Southwest 411 473 33,500 -919 Descending Salt Lake Center
Tue 01:05:18 PM 37.8697 -111.3758 232° Southwest 416 479 32,100 -726 Descending Salt Lake Center
Tue 01:06:20 PM 37.8017 -111.4914 233° Southwest 411 473 32,000 -48 Descending Salt Lake Center
Tue 01:07:22 PM 37.7319 -111.6031 232° Southwest 407 468 32,000  Level Salt Lake Center
Tue 01:08:24 PM 37.6606 -111.7167 232° Southwest 410 472 32,000  Level Salt Lake Center
Tue 01:08:55 PM 37.6186 -111.7847 232° Southwest 411 473 32,000  Level Denver Center
Tue 01:09:57 PM 37.5486 -111.8975 232° Southwest 409 471 32,000  Level Denver Center
Tue 01:10:28 PM 37.5194 -111.9419 230° Southwest 409 471 32,000  Level Salt Lake Center
Tue 01:11:30 PM 37.4350 -112.0778 232° Southwest 410 472 32,000  Level Salt Lake Center
Tue 01:12:23 PM 37.3781 -112.1692 232° Southwest 410 472 32,000  Level Los Angeles Center
Tue 01:13:25 PM 37.3064 -112.2822 231° Southwest 411 473 32,000  Level Los Angeles Center
Tue 01:14:27 PM 37.2344 -112.3964 232° Southwest 413 475 32,000  Level Los Angeles Center
Tue 01:15:30 PM 37.1608 -112.5114 231° Southwest 418 481 32,000  Level Los Angeles Center
Tue 01:16:32 PM 37.0717 -112.6508 231° Southwest 425 489 32,000  Level Los Angeles Center
Tue 01:17:34 PM 36.9972 -112.7669 231° Southwest 426 490 32,000 -435 Level Los Angeles Center
Tue 01:18:36 PM 36.9236 -112.8825 231° Southwest 425 489 31,100 -1,210 Descending Los Angeles Center
Tue 01:19:38 PM 36.8497 -112.9981 231° Southwest 424 488 29,500 -1,548 Descending Los Angeles Center
Tue 01:20:40 PM 36.7756 -113.1119 231° Southwest 424 488 27,900 -1,500 Descending Los Angeles Center
Tue 01:21:42 PM 36.7053 -113.2211 231° Southwest 410 472 26,400 -1,584 Descending Los Angeles Center
Tue 01:22:45 PM 36.6217 -113.3514 231° Southwest 404 465 24,600 -1,584 Descending Los Angeles Center
Tue 01:23:47 PM 36.5811 -113.4836 249° West 410 472 23,100 -1,452 Descending Los Angeles Center
Tue 01:24:49 PM 36.5406 -113.6117 249° West 402 463 21,600 -1,403 Descending Los Angeles Center
Tue 01:25:51 PM 36.5083 -113.7231 250° West 381 438 20,200 -1,548 Descending Los Angeles Center
Tue 01:26:53 PM 36.4628 -113.8683 249° West 376 433 18,400 -1,597 Descending Los Angeles Center
Tue 01:27:55 PM 36.4244 -113.9864 248° West 370 426 16,900 -1,513 Descending Los Angeles Center
Tue 01:28:48 PM 36.3931 -114.0894 249° West 356 410 15,500 -1,452 Descending Los Angeles Center
Tue 01:28:57 PM 36.3894 -114.0994 246° West 354 407 15,400 -1,256 Descending Los Angeles Center
Tue 01:29:31 PM 36.3664 -114.1736 249° West 351 404 14,600 -1,161 Descending Los Angeles Center
Tue 01:29:59 PM 36.3544 -114.2147 250° West 355 409 14,200 -1,200 Descending Los Angeles Center
Tue 01:30:31 PM 36.3319 -114.2897 250° West 345 397 13,400 -1,048 Descending Los Angeles Center
Tue 01:31:02 PM 36.3167 -114.3244 241° Southwest 347 399 13,100 -393 Descending Los Angeles Center
Tue 01:31:32 PM 36.2761 -114.3786 227° Southwest 329 379 13,000 -194 Descending Los Angeles Center
Tue 01:32:04 PM 36.2531 -114.4036 221° Southwest 330 380 12,900 -885 Descending Los Angeles Center
Tue 01:32:33 PM 36.2092 -114.4572 225° Southwest 333 383 12,100 -871 Descending Los Angeles Center
Tue 01:33:06 PM 36.1708 -114.4956 219° Southwest 331 381 12,000 -109 Descending Los Angeles Center
Tue 01:33:28 PM 36.1406 -114.5181 211° Southwest 332 382 12,000 -677 Level Los Angeles Center
Tue 01:34:08 PM 36.0883 -114.5517 207° Southwest 334 384 11,300 -1,433 Descending Los Angeles Center
Tue 01:34:35 PM 36.0506 -114.5803 211° Southwest 328 377 10,400 -1,645 Descending Los Angeles Center
Tue 01:35:10 PM 36.0094 -114.6072 208° Southwest 327 376 9,600 -1,574 Descending Los Angeles Center
Tue 01:35:36 PM 35.9761 -114.6347 214° Southwest 311 358 8,800 -1,548 Descending Los Angeles Center
Tue 01:36:12 PM 35.9372 -114.6597 207° Southwest 311 358 8,000 -1,522 Descending Los Angeles Center
Tue 01:36:43 PM 35.9147 -114.7086 240° Southwest 285 328 7,100 -968 Descending Los Angeles Center
Tue 01:37:14 PM 35.8958 -114.7408 234° Southwest 290 334 7,000 -125 Descending Los Angeles Center
Tue 01:37:31 PM 35.8778 -114.7767 238° Southwest 283 326 7,000  Level Los Angeles Center
Tue 01:38:16 PM 35.8519 -114.8211 234° Southwest 284 327 7,000  Level Los Angeles Center
Tue 01:38:32 PM 35.8353 -114.8572 240° Southwest 279 321 7,000 -95 Level Los Angeles Center
Tue 01:39:19 PM 35.8264 -114.9289 261° West 283 326 6,900 -295 Descending Los Angeles Center
Tue 01:39:33 PM 35.8236 -114.9514 261° West 278 320 6,700 -871 Descending Los Angeles Center
Tue 01:40:21 PM 35.8147 -115.0214 261° West 279 321 6,000 -532 Descending Los Angeles Center
Tue 01:40:52 PM 35.8256 -115.0594 289° West 223 257 6,000 -194 Level Los Angeles Center
Tue 01:41:23 PM 35.8436 -115.0775 321° Northwest 226 260 5,800 -612 Descending Los Angeles Center
Tue 01:41:41 PM 35.8589 -115.0936 319° Northwest 184 212 5,500 -871 Descending Los Angeles Center
Tue 01:42:25 PM 35.8906 -115.0894 North 205 236 4,900 -873 Descending Los Angeles Center
Tue 01:42:36 PM 35.9039 -115.0919 351° North 180 207 4,700 -581 Descending Los Angeles Center
Tue 01:43:27 PM 35.9375 -115.0872 North 182 209 4,300 -532 Descending Los Angeles Center
Tue 01:43:55 PM 35.9647 -115.0828 North 163 188 4,000 -581 Descending Los Angeles Center
Tue 01:44:29 PM 35.9822 -115.0781 12° North 169 194 3,700 -735 Descending Los Angeles Center
Tue 01:44:44 PM 35.9989 -115.0819 349° North 153 176 3,400 -484 Descending Los Angeles Center
Tue 01:45:31 PM 36.0097 -115.1128 293° West 156 180 3,200 -400 Descending Los Angeles Center
Tue 01:45:44 PM 36.0081 -115.1242 260° West 138 159 3,000 -581 Descending Los Angeles Center
Tue 01:46:33 PM 35.9839 -115.1100 155° Southeast 215 247 2,600 -490 Descending Los Angeles Center
Tue 01:48:00 PM 35.9667 -115.1333 345° North  Level FlightAware Approximate

Login

Don't have an account? Register now (free) for customized features, flight alerts, and more!